Time;durP1;ratioP1;P1;durP2;ratioP2;P2;SDS_P1;SDS_P2;PMS_P1;PMS_P2;Temp;Humidity;BMP_temperature;BMP_pressure;BME280_temperature;BME280_humidity;BME280_pressure;Samples;Min_cycle;Max_cycle;Signal;HPM_P1;HPM_P2
2024/04/15 00:01:18;;;;;;;4.85;2.22;;;;;;;14.70;100.00;97077.66;5323203;26;20001;-61
2024/04/15 00:03:45;;;;;;;3.22;1.80;;;;;;;14.87;100.00;97086.53;5325793;26;20060;-61
2024/04/15 00:06:12;;;;;;;4.55;2.00;;;;;;;15.12;100.00;97088.22;5330720;26;20008;-61
2024/04/15 00:08:38;;;;;;;4.22;1.90;;;;;;;15.30;100.00;97080.38;5325508;26;20012;-61
2024/04/15 00:11:06;;;;;;;3.70;1.70;;;;;;;15.43;100.00;97093.31;5322591;26;20000;-61
2024/04/15 00:13:32;;;;;;;3.67;1.80;;;;;;;15.50;100.00;97103.88;5328025;26;20129;-61
2024/04/15 00:15:59;;;;;;;3.92;2.00;;;;;;;15.54;100.00;97102.19;5327326;26;20009;-60
2024/04/15 00:18:26;;;;;;;7.00;1.98;;;;;;;15.55;100.00;97098.34;5329306;26;20005;-60
2024/04/15 00:20:59;;;;;;;3.50;1.80;;;;;;;15.56;100.00;97101.91;5323999;26;20013;-60
2024/04/15 00:23:27;;;;;;;4.97;2.10;;;;;;;15.57;100.00;97095.34;5329740;26;20007;-60
2024/04/15 00:25:56;;;;;;;5.22;1.90;;;;;;;15.46;100.00;97087.28;5330891;26;20016;-60
2024/04/15 00:28:23;;;;;;;3.33;1.70;;;;;;;15.42;100.00;97094.44;5331551;26;20806;-61
2024/04/15 00:30:50;;;;;;;3.90;2.10;;;;;;;15.43;100.00;97093.31;5336745;26;20064;-61
2024/04/15 00:33:20;;;;;;;4.15;1.60;;;;;;;15.40;100.00;97088.44;5330818;26;20013;-61
2024/04/15 00:35:47;;;;;;;3.60;1.88;;;;;;;15.33;100.00;97091.53;5328935;26;20007;-60
2024/04/15 00:38:15;;;;;;;2.80;1.35;;;;;;;15.33;100.00;97093.41;5323114;26;20776;-61
2024/04/15 00:40:42;;;;;;;3.63;1.80;;;;;;;15.37;100.00;97080.81;5325926;26;20001;-60
2024/04/15 00:43:09;;;;;;;3.55;1.75;;;;;;;15.30;100.00;97070.28;5331870;26;20020;-61
2024/04/15 00:45:36;;;;;;;4.68;1.70;;;;;;;15.05;100.00;97053.13;5329987;26;20012;-60
2024/04/15 00:48:05;;;;;;;3.58;1.90;;;;;;;14.89;100.00;97060.63;5319266;26;20016;-61
2024/04/15 00:50:35;;;;;;;3.55;1.80;;;;;;;14.85;100.00;97053.31;5328614;26;20008;-61
2024/04/15 00:53:05;;;;;;;3.10;1.80;;;;;;;14.57;100.00;97054.59;5332032;26;20357;-60
2024/04/15 00:55:34;;;;;;;3.85;1.80;;;;;;;14.37;100.00;97039.25;5339317;26;20012;-61
2024/04/15 00:58:01;;;;;;;3.97;2.20;;;;;;;14.25;100.00;97052.41;5337962;26;20013;-61
2024/04/15 01:00:29;;;;;;;4.45;1.92;;;;;;;14.16;100.00;97053.03;5335514;26;20009;-60
2024/04/15 01:02:57;;;;;;;5.32;2.47;;;;;;;14.03;100.00;97049.03;5329812;26;19997;-60
2024/04/15 01:05:24;;;;;;;3.17;1.80;;;;;;;13.95;100.00;97035.19;5319413;26;20002;-60
2024/04/15 01:07:51;;;;;;;4.32;2.03;;;;;;;13.94;100.00;97033.59;5329331;26;20005;-60
2024/04/15 01:10:18;;;;;;;5.38;2.20;;;;;;;13.91;100.00;97016.75;5332144;26;20016;-60
2024/04/15 01:12:45;;;;;;;3.05;1.60;;;;;;;13.83;100.00;97027.41;5315719;26;20001;-61
2024/04/15 01:15:12;;;;;;;3.88;1.98;;;;;;;13.72;100.00;97021.19;5323997;26;20005;-60
2024/04/15 01:17:38;;;;;;;4.47;2.08;;;;;;;13.67;100.00;97022.03;5330633;26;20398;-61
2024/04/15 01:20:05;;;;;;;3.92;2.00;;;;;;;13.67;100.00;97027.47;5335379;26;20001;-61
2024/04/15 01:22:45;;;;;;;4.63;1.85;;;;;;;13.65;100.00;97016.88;5311414;26;20055;-61
2024/04/15 01:25:11;;;;;;;3.33;1.80;;;;;;;13.51;100.00;97013.16;5338920;26;20500;-60
2024/04/15 01:27:39;;;;;;;4.28;2.20;;;;;;;13.44;100.00;97013.44;5322530;26;20041;-61
2024/04/15 01:30:08;;;;;;;3.92;1.75;;;;;;;13.41;100.00;97019.41;5346505;26;20004;-61
2024/04/15 01:32:35;;;;;;;4.78;2.00;;;;;;;13.36;100.00;97014.00;5328330;26;20010;-61
2024/04/15 01:35:02;;;;;;;2.78;1.60;;;;;;;13.25;100.00;97013.25;5347767;26;20725;-61
2024/04/15 01:37:29;;;;;;;3.80;1.77;;;;;;;13.18;100.00;97013.53;5332048;26;20576;-61
2024/04/15 01:39:55;;;;;;;3.83;1.80;;;;;;;13.05;100.00;97017.66;5337741;26;20079;-61
2024/04/15 01:42:22;;;;;;;3.70;1.73;;;;;;;13.05;100.00;97012.22;5328784;26;20005;-60
2024/04/15 01:44:49;;;;;;;4.00;1.75;;;;;;;12.92;100.00;97010.09;5333205;26;20005;-61
2024/04/15 01:47:15;;;;;;;5.40;1.73;;;;;;;12.80;100.00;97004.97;5337140;26;20015;-60
2024/04/15 01:49:42;;;;;;;4.22;1.75;;;;;;;12.72;100.00;96990.84;5332514;26;20012;-61
2024/04/15 01:52:08;;;;;;;9.30;1.95;;;;;;;12.70;100.00;96984.88;5335822;26;20472;-60
2024/04/15 01:54:35;;;;;;;4.45;2.00;;;;;;;12.66;100.00;96981.09;5333786;26;20024;-60
2024/04/15 01:57:02;;;;;;;4.78;1.92;;;;;;;12.51;100.00;96971.06;5333507;26;20033;-61
2024/04/15 01:59:28;;;;;;;3.67;1.85;;;;;;;12.40;100.00;96981.13;5334373;26;20008;-60
2024/04/15 02:01:55;;;;;;;5.35;1.60;;;;;;;12.42;100.00;96995.25;5339580;26;20017;-60
2024/04/15 02:04:22;;;;;;;4.50;1.77;;;;;;;12.61;100.00;97011.00;5329015;26;20007;-60
2024/04/15 02:06:48;;;;;;;4.85;1.50;;;;;;;12.84;100.00;97009.59;5332352;26;20019;-60
2024/04/15 02:09:15;;;;;;;3.90;1.80;;;;;;;12.90;100.00;97010.34;5337566;26;20024;-61
2024/04/15 02:11:42;;;;;;;4.80;1.65;;;;;;;12.89;100.00;96997.88;5324502;26;20023;-60
2024/04/15 02:14:08;;;;;;;5.28;1.40;;;;;;;12.96;100.00;96987.53;5327270;26;21803;-61
2024/04/15 02:16:36;;;;;;;3.65;1.70;;;;;;;12.95;100.00;96990.53;5327812;26;20456;-61
2024/04/15 02:19:02;;;;;;;2.63;1.50;;;;;;;12.98;100.00;96989.97;5327346;26;19997;-60
2024/04/15 02:21:29;;;;;;;3.03;1.40;;;;;;;12.97;100.00;96986.44;5332558;26;20491;-60
2024/04/15 02:23:55;;;;;;;4.47;1.50;;;;;;;12.84;100.00;96974.25;5327335;26;20232;-61
2024/04/15 02:26:22;;;;;;;4.15;1.50;;;;;;;12.80;100.00;96975.06;5334384;26;20005;-61
2024/04/15 02:28:49;;;;;;;5.28;1.90;;;;;;;12.74;100.00;96975.09;5334369;26;20001;-61
2024/04/15 02:31:15;;;;;;;4.50;1.60;;;;;;;12.69;100.00;96969.69;5334611;26;20025;-61
2024/04/15 02:33:42;;;;;;;4.70;1.60;;;;;;;12.44;100.00;96970.53;5325143;26;20005;-61
2024/04/15 02:36:08;;;;;;;5.22;1.77;;;;;;;12.27;100.00;96984.41;5325272;26;20005;-61
2024/04/15 02:38:35;;;;;;;3.50;1.70;;;;;;;12.26;100.00;96956.44;5331936;26;20051;-60
2024/04/15 02:41:02;;;;;;;4.97;1.90;;;;;;;12.28;100.00;96946.16;5326960;26;20658;-60
2024/04/15 02:43:28;;;;;;;4.47;1.63;;;;;;;12.32;100.00;96968.13;5333656;26;20016;-61
2024/04/15 02:45:55;;;;;;;3.95;1.65;;;;;;;12.35;100.00;96967.56;5332884;26;20083;-60
2024/04/15 02:48:22;;;;;;;4.65;1.63;;;;;;;12.17;100.00;96968.94;5322127;26;19998;-61
2024/04/15 02:50:48;;;;;;;5.95;2.00;;;;;;;11.94;100.00;96949.38;5326705;26;20016;-60
2024/04/15 02:53:15;;;;;;;6.00;2.03;;;;;;;11.86;100.00;96955.34;5332334;26;20009;-61
2024/04/15 02:55:42;;;;;;;4.40;2.10;;;;;;;12.01;100.00;96963.47;5329848;26;20017;-60
2024/04/15 02:58:08;;;;;;;3.40;2.10;;;;;;;12.11;100.00;96954.56;5330815;26;20012;-61
2024/04/15 03:00:35;;;;;;;4.93;1.77;;;;;;;12.06;100.00;96955.38;5333476;26;20017;-61
2024/04/15 03:03:03;;;;;;;7.00;2.08;;;;;;;12.10;100.00;96955.66;5330594;26;20001;-61
2024/04/15 03:05:30;;;;;;;6.40;2.00;;;;;;;12.12;100.00;96967.03;5330860;26;20045;-61
2024/04/15 03:07:56;;;;;;;3.17;1.73;;;;;;;12.25;100.00;96964.84;5336039;26;20009;-60
2024/04/15 03:10:25;;;;;;;4.13;1.90;;;;;;;12.46;100.00;96971.88;5323937;26;20013;-61
2024/04/15 03:12:51;;;;;;;3.25;1.30;;;;;;;12.56;100.00;96957.47;5333825;26;20013;-61
2024/04/15 03:15:18;;;;;;;3.15;1.30;;;;;;;12.58;100.00;96959.94;5321888;26;20004;-61
2024/04/15 03:17:51;;;;;;;3.60;1.65;;;;;;;12.59;100.00;96947.97;5331597;26;20009;-61
2024/04/15 03:20:18;;;;;;;5.05;1.88;;;;;;;12.52;100.00;96931.97;5334398;26;20052;-61
2024/04/15 03:22:50;;;;;;;3.65;1.60;;;;;;;12.46;100.00;96936.59;5329445;26;20016;-61
2024/04/15 03:25:22;;;;;;;4.55;1.55;;;;;;;12.47;100.00;96956.41;5324728;26;20009;-61
2024/04/15 03:27:49;;;;;;;4.75;1.60;;;;;;;12.44;100.00;96938.78;5326702;26;20015;-61
2024/04/15 03:30:16;;;;;;;4.07;1.98;;;;;;;12.25;100.00;96916.81;5338404;26;20004;-60
2024/04/15 03:32:42;;;;;;;5.70;1.98;;;;;;;12.18;100.00;96905.44;5328904;26;22266;-60
2024/04/15 03:35:15;;;;;;;3.78;1.65;;;;;;;12.18;100.00;96922.53;5326961;26;20020;-60
2024/04/15 03:37:42;;;;;;;4.38;2.08;;;;;;;12.22;100.00;96910.03;5327470;26;20086;-61
2024/04/15 03:40:10;;;;;;;4.55;1.73;;;;;;;12.40;100.00;96924.13;5332955;26;20009;-60
2024/04/15 03:42:36;;;;;;;3.75;1.60;;;;;;;12.50;100.00;96904.28;5331220;26;20012;-61
2024/04/15 03:45:04;;;;;;;4.93;1.38;;;;;;;12.61;100.00;96888.78;5325931;26;20094;-61
2024/04/15 03:47:31;;;;;;;3.25;1.50;;;;;;;12.30;100.00;96884.22;5327726;26;20016;-60
2024/04/15 03:49:57;;;;;;;4.13;1.50;;;;;;;12.23;100.00;96886.41;5324464;26;20360;-60
2024/04/15 03:52:24;;;;;;;6.57;1.92;;;;;;;12.15;100.00;96897.81;5333828;26;20011;-60
2024/04/15 03:54:50;;;;;;;5.70;1.55;;;;;;;12.17;100.00;96899.16;5335198;26;20017;-61
2024/04/15 03:57:18;;;;;;;3.72;1.77;;;;;;;12.18;100.00;96895.41;5327824;26;20057;-61
2024/04/15 03:59:45;;;;;;;3.65;1.58;;;;;;;11.99;100.00;96903.25;5331035;26;20016;-61
2024/04/15 04:02:11;;;;;;;4.40;1.60;;;;;;;11.96;100.00;96893.78;5332183;26;20048;-61
2024/04/15 04:04:39;;;;;;;7.38;1.85;;;;;;;11.69;100.00;96902.19;5329005;26;20001;-61
2024/04/15 04:07:06;;;;;;;3.95;1.95;;;;;;;11.66;100.00;96914.38;5334589;26;20019;-61
2024/04/15 04:09:33;;;;;;;5.35;1.58;;;;;;;11.78;100.00;96932.28;5322948;26;20545;-61
2024/04/15 04:11:59;;;;;;;6.30;1.70;;;;;;;11.92;100.00;96936.09;5330924;26;20090;-61
2024/04/15 04:14:28;;;;;;;2.97;1.15;;;;;;;12.05;100.00;96923.06;5333408;26;20009;-60
2024/04/15 04:16:54;;;;;;;8.30;1.58;;;;;;;12.20;100.00;96917.63;5324976;26;20013;-61
2024/04/15 04:19:22;;;;;;;5.53;1.42;;;;;;;12.27;100.00;96916.56;5324715;26;20019;-61
2024/04/15 04:21:49;;;;;;;4.88;1.42;;;;;;;12.30;100.00;96902.41;5322515;26;20011;-61
2024/04/15 04:24:16;;;;;;;3.97;1.38;;;;;;;12.03;100.00;96907.06;5325749;26;20009;-61
2024/04/15 04:26:43;;;;;;;6.22;1.70;;;;;;;11.94;100.00;96919.56;5325059;26;20001;-61
2024/04/15 04:29:10;;;;;;;3.85;1.75;;;;;;;11.77;100.00;96939.63;5330476;26;20001;-61
2024/04/15 04:31:37;;;;;;;4.45;1.77;;;;;;;11.66;100.00;96943.38;5331722;26;20070;-60
2024/04/15 04:34:04;;;;;;;11.45;2.55;;;;;;;11.55;100.00;96929.84;5327202;26;19997;-61
2024/04/15 04:36:31;;;;;;;5.60;2.50;;;;;;;11.43;100.00;96942.81;5328717;26;20021;-60
2024/04/15 04:38:57;;;;;;;4.80;2.13;;;;;;;11.37;100.00;96941.16;5328512;26;20373;-60
2024/04/15 04:41:24;;;;;;;9.32;2.42;;;;;;;11.33;100.00;96927.34;5327816;26;20110;-61
2024/04/15 04:43:50;;;;;;;9.15;2.25;;;;;;;11.46;100.00;96923.28;5328578;26;20721;-61
2024/04/15 04:46:17;;;;;;;5.38;1.77;;;;;;;11.49;100.00;96920.06;5326113;26;20001;-61
2024/04/15 04:48:44;;;;;;;3.67;1.77;;;;;;;11.42;100.00;96889.66;5323302;26;20012;-61
2024/04/15 04:51:11;;;;;;;5.25;1.73;;;;;;;11.36;100.00;96902.44;5327104;26;20009;-61
2024/04/15 04:53:38;;;;;;;2.95;1.70;;;;;;;11.42;100.00;96919.50;5326875;26;20015;-61
2024/04/15 04:56:11;;;;;;;5.53;1.73;;;;;;;11.39;100.00;96926.25;5324886;26;20001;-61
2024/04/15 04:58:38;;;;;;;4.18;1.60;;;;;;;11.28;100.00;96928.13;5329976;26;20011;-61
2024/04/15 05:01:09;;;;;;;4.80;1.23;;;;;;;11.29;100.00;96923.53;5327070;26;20462;-61
2024/04/15 05:03:37;;;;;;;;;;;;;;;11.40;100.00;96924.38;5326594;26;20005;-61
2024/04/15 05:06:06;;;;;;;4.20;1.83;;;;;;;11.30;100.00;96920.56;5337656;26;19941;-61
2024/04/15 05:08:33;;;;;;;6.15;1.95;;;;;;;11.30;100.00;96926.00;5331002;26;20555;-61
2024/04/15 05:10:59;;;;;;;5.78;1.73;;;;;;;11.14;100.00;96932.44;5328920;26;20009;-61
2024/04/15 05:13:27;;;;;;;6.38;2.40;;;;;;;11.00;100.00;96932.13;5329608;26;20392;-61
2024/04/15 05:16:04;;;;;;;6.05;1.90;;;;;;;11.07;100.00;96935.41;5332883;26;20029;-60
2024/04/15 05:18:31;;;;;;;4.28;1.60;;;;;;;11.12;100.00;96958.97;5325233;26;20006;-61
2024/04/15 05:21:02;;;;;;;3.38;1.50;;;;;;;11.22;100.00;96950.91;5324122;26;20369;-61
2024/04/15 05:23:29;;;;;;;5.70;2.15;;;;;;;11.24;100.00;96954.16;5321970;26;20516;-60
2024/04/15 05:26:00;;;;;;;5.47;1.70;;;;;;;11.22;100.00;96958.19;5329838;26;20618;-61
2024/04/15 05:28:27;;;;;;;5.32;1.27;;;;;;;11.23;100.00;96957.94;5327203;26;20075;-60
2024/04/15 05:30:56;;;;;;;3.45;1.23;;;;;;;11.30;100.00;96955.81;5331828;26;20075;-60
2024/04/15 05:33:23;;;;;;;4.70;1.70;;;;;;;11.39;100.00;96960.72;5332195;26;20563;-61
2024/04/15 05:35:50;;;;;;;4.82;1.33;;;;;;;11.37;100.00;96969.09;5321424;26;19997;-61
2024/04/15 05:38:17;;;;;;;2.70;1.10;;;;;;;11.37;100.00;96973.69;5337266;26;20031;-61
2024/04/15 05:40:44;;;;;;;4.80;1.27;;;;;;;11.24;100.00;96972.31;5325121;26;20512;-61
2024/04/15 05:43:11;;;;;;;3.92;1.30;;;;;;;11.28;100.00;96976.13;5339373;26;20015;-61
2024/04/15 05:45:38;;;;;;;3.50;1.40;;;;;;;11.28;100.00;96973.41;5331055;26;20009;-61
2024/04/15 05:48:05;;;;;;;3.45;1.23;;;;;;;11.15;100.00;96969.28;5335633;26;20005;-60
2024/04/15 05:50:32;;;;;;;4.55;1.38;;;;;;;11.11;100.00;96976.31;5336606;26;20004;-60
2024/04/15 05:52:59;;;;;;;3.70;1.38;;;;;;;11.00;100.00;96964.63;5331668;26;20017;-61
2024/04/15 05:55:26;;;;;;;4.47;1.52;;;;;;;11.02;100.00;96963.28;5326482;26;20756;-61
2024/04/15 05:57:53;;;;;;;3.33;1.27;;;;;;;11.05;100.00;96968.19;5339777;26;20425;-61
2024/04/15 06:00:20;;;;;;;3.83;1.55;;;;;;;11.01;100.00;96953.53;5330300;26;20083;-63
2024/04/15 06:02:47;;;;;;;4.65;1.60;;;;;;;11.01;100.00;96950.81;5335509;26;20472;-60
2024/04/15 06:05:14;;;;;;;4.75;1.58;;;;;;;11.12;100.00;96940.84;5334068;26;20005;-61
2024/04/15 06:07:41;;;;;;;4.38;1.77;;;;;;;11.16;100.00;96944.66;5330431;26;20016;-61
2024/04/15 06:10:09;;;;;;;4.90;1.65;;;;;;;11.15;100.00;96942.19;5335717;26;20001;-61
2024/04/15 06:12:36;;;;;;;4.60;1.95;;;;;;;11.11;100.00;96933.78;5330098;26;20004;-61
2024/04/15 06:15:03;;;;;;;3.92;1.80;;;;;;;11.18;100.00;96942.47;5323006;26;20814;-60
2024/04/15 06:17:30;;;;;;;3.67;1.58;;;;;;;11.28;100.00;96946.31;5326455;26;20011;-61
2024/04/15 06:19:57;;;;;;;4.53;1.65;;;;;;;11.31;100.00;96946.59;5334848;26;20001;-60
2024/04/15 06:22:23;;;;;;;5.03;1.95;;;;;;;11.19;100.00;96952.25;5324245;26;20009;-60
2024/04/15 06:24:50;;;;;;;4.15;2.08;;;;;;;11.13;100.00;96950.59;5333624;26;20005;-61
2024/04/15 06:27:18;;;;;;;4.15;1.83;;;;;;;11.17;100.00;96943.56;5327539;26;20001;-60
2024/04/15 06:29:44;;;;;;;4.07;1.48;;;;;;;11.10;100.00;96936.78;5333617;26;20880;-61
2024/04/15 06:32:12;;;;;;;2.70;1.60;;;;;;;11.21;100.00;96946.56;5330304;26;19997;-60
2024/04/15 06:34:38;;;;;;;6.93;2.25;;;;;;;11.21;100.00;96946.56;5332728;26;20083;-61
2024/04/15 06:37:05;;;;;;;4.25;1.95;;;;;;;11.12;100.00;96945.44;5331664;26;20001;-60
2024/04/15 06:39:33;;;;;;;7.22;2.38;;;;;;;11.15;100.00;96950.31;5335348;26;20009;-61
2024/04/15 06:42:00;;;;;;;5.47;1.83;;;;;;;11.12;100.00;96951.69;5317629;26;20019;-60
2024/04/15 06:44:27;;;;;;;6.13;2.17;;;;;;;11.17;100.00;96943.56;5336012;26;20008;-61
2024/04/15 06:46:54;;;;;;;4.70;2.30;;;;;;;11.19;100.00;96933.28;5335249;26;20001;-60
2024/04/15 06:49:21;;;;;;;4.88;1.95;;;;;;;11.26;100.00;96935.72;5327407;26;20004;-61
2024/04/15 06:51:47;;;;;;;5.30;2.17;;;;;;;11.30;100.00;96934.13;5322865;26;20005;-60
2024/04/15 06:54:14;;;;;;;7.25;2.42;;;;;;;11.41;100.00;96934.13;5319429;26;20023;-60
2024/04/15 06:56:41;;;;;;;6.13;2.00;;;;;;;11.48;100.00;96940.13;5330472;26;20000;-60
2024/04/15 06:59:07;;;;;;;6.78;2.53;;;;;;;11.40;100.00;96941.47;5328241;26;20013;-60
2024/04/15 07:01:34;;;;;;;5.28;2.28;;;;;;;11.35;100.00;96949.56;5330155;26;20012;-60
2024/04/15 07:04:06;;;;;;;5.78;2.58;;;;;;;11.44;100.00;96949.88;5335200;26;20490;-59
2024/04/15 07:06:33;;;;;;;4.32;2.45;;;;;;;11.47;100.00;96948.50;5329693;26;20037;-60
2024/04/15 07:08:59;;;;;;;4.65;2.20;;;;;;;11.66;100.00;96960.50;5335571;26;20484;-60
2024/04/15 07:11:26;;;;;;;7.63;3.15;;;;;;;11.49;100.00;96968.03;5332128;26;20015;-59
2024/04/15 07:13:53;;;;;;;6.10;2.80;;;;;;;11.70;100.00;96968.88;5337987;26;20001;-60
2024/04/15 07:16:20;;;;;;;7.15;2.67;;;;;;;11.62;100.00;96969.41;5332567;26;20793;-60
2024/04/15 07:18:47;;;;;;;5.03;2.33;;;;;;;11.69;100.00;96972.69;5331681;26;20013;-60
2024/04/15 07:21:13;;;;;;;8.27;2.83;;;;;;;11.82;100.00;96963.19;5333317;26;20001;-60
2024/04/15 07:23:44;;;;;;;6.63;2.85;;;;;;;11.86;100.00;96956.16;5339770;26;20004;-60
2024/04/15 07:26:11;;;;;;;9.60;2.67;;;;;;;11.96;100.00;96952.63;5331903;26;20084;-62
2024/04/15 07:28:39;;;;;;;5.45;2.75;;;;;;;12.10;100.00;96942.88;5333052;26;20009;-60
2024/04/15 07:31:06;;;;;;;6.10;2.85;;;;;;;11.84;100.00;96948.28;5333553;26;20001;-60
2024/04/15 07:33:33;;;;;;;5.90;2.60;;;;;;;12.02;100.00;96945.31;5335254;26;20005;-60
2024/04/15 07:36:00;;;;;;;7.40;2.90;;;;;;;12.06;100.00;96920.09;5334617;26;20008;-60
2024/04/15 07:38:27;;;;;;;6.78;3.17;;;;;;;12.06;100.00;96922.78;5329434;26;20016;-60
2024/04/15 07:40:58;;;;;;;6.43;2.65;;;;;;;12.00;100.00;96923.03;5332603;26;20473;-60
2024/04/15 07:43:25;;;;;;;5.85;2.95;;;;;;;11.95;100.00;96934.72;5331611;26;20009;-60
2024/04/15 07:45:52;;;;;;;7.07;2.83;;;;;;;11.79;100.00;96928.50;5327440;26;20013;-60
2024/04/15 07:48:19;;;;;;;4.78;2.55;;;;;;;11.97;100.00;96925.22;5331590;26;20009;-60
2024/04/15 07:50:45;;;;;;;7.47;2.90;;;;;;;12.04;100.00;96932.28;5334869;26;20008;-60
2024/04/15 07:53:12;;;;;;;6.68;3.10;;;;;;;11.79;100.00;96947.50;5332944;26;20082;-60
2024/04/15 07:55:47;;;;;;;8.38;3.47;;;;;;;11.91;100.00;96947.22;5329476;26;20359;-60
2024/04/15 07:58:13;;;;;;;7.20;3.10;;;;;;;11.81;100.00;96940.69;5330017;26;20030;-60
2024/04/15 08:00:40;;;;;;;7.28;3.22;;;;;;;11.60;100.00;96934.44;5329105;26;20001;-60
2024/04/15 08:03:07;;;;;;;7.35;3.65;;;;;;;11.70;100.00;96920.06;5326674;26;20015;-60
2024/04/15 08:05:34;;;;;;;9.02;4.28;;;;;;;11.63;100.00;96906.78;5329485;26;20114;-60
2024/04/15 08:08:00;;;;;;;5.82;3.53;;;;;;;11.62;100.00;96909.75;5333539;26;20005;-60
2024/04/15 08:10:27;;;;;;;7.05;3.40;;;;;;;11.80;100.00;96906.50;5337502;26;20017;-60
2024/04/15 08:12:54;;;;;;;5.47;3.35;;;;;;;11.99;100.00;96897.84;5340712;26;20714;-60
2024/04/15 08:15:21;;;;;;;10.60;4.00;;;;;;;11.84;100.00;96898.66;5329909;26;20015;-60
2024/04/15 08:17:48;;;;;;;6.85;3.90;;;;;;;11.88;100.00;96886.19;5332612;26;20020;-60
2024/04/15 08:20:14;;;;;;;8.05;3.80;;;;;;;12.23;100.00;96886.41;5333051;26;19997;-60
2024/04/15 08:22:43;;;;;;;8.10;3.55;;;;;;;12.29;100.00;96890.75;5329331;26;20048;-60
2024/04/15 08:25:11;;;;;;;9.55;3.70;;;;;;;12.18;100.00;96889.97;5330874;26;20001;-60
2024/04/15 08:27:38;;;;;;;6.40;3.55;;;;;;;12.53;100.00;96892.06;5330307;26;20013;-60
2024/04/15 08:30:05;;;;;;;5.65;3.33;;;;;;;12.59;100.00;96886.31;5332932;26;20793;-59
2024/04/15 08:32:32;;;;;;;8.68;3.92;;;;;;;12.26;100.00;96887.75;5328599;26;20867;-60
2024/04/15 08:34:58;;;;;;;9.15;3.97;;;;;;;12.33;100.00;96878.25;5331098;26;19997;-60
2024/04/15 08:37:25;;;;;;;6.18;3.95;;;;;;;12.26;100.00;96868.75;5329336;26;20294;-60
2024/04/15 08:39:52;;;;;;;7.38;3.58;;;;;;;12.23;100.00;96872.84;5332555;26;20071;-61
2024/04/15 08:42:29;;;;;;;8.65;4.30;;;;;;;12.54;100.00;96855.66;5333924;26;20005;-60
2024/04/15 08:44:59;;;;;;;6.40;3.45;;;;;;;12.44;100.00;96867.34;5328883;26;20009;-60
2024/04/15 08:47:30;;;;;;;9.10;4.97;;;;;;;12.35;100.00;96870.63;5330222;26;20009;-61
2024/04/15 08:49:57;;;;;;;7.25;4.38;;;;;;;12.25;100.00;96872.56;5330944;26;20012;-60
2024/04/15 08:52:24;;;;;;;7.57;4.22;;;;;;;12.04;100.00;96873.41;5334742;26;20009;-60
2024/04/15 08:54:52;;;;;;;8.38;4.55;;;;;;;12.05;100.00;96871.50;5332187;26;20005;-60
2024/04/15 08:57:20;;;;;;;8.27;3.97;;;;;;;12.00;100.00;96872.31;5334755;26;20775;-60
2024/04/15 08:59:49;;;;;;;7.43;4.55;;;;;;;12.03;100.00;96870.97;5327836;26;20001;-60
2024/04/15 09:02:16;;;;;;;9.60;4.18;;;;;;;12.17;100.00;96863.09;5327428;26;20079;-61
2024/04/15 09:04:43;;;;;;;8.68;4.72;;;;;;;12.00;100.00;96856.03;5328987;26;20001;-60
2024/04/15 09:07:10;;;;;;;8.38;4.25;;;;;;;12.32;100.00;96849.47;5330946;26;20016;-61
2024/04/15 09:09:37;;;;;;;6.88;3.83;;;;;;;12.41;100.00;96851.63;5332136;26;20407;-61
2024/04/15 09:12:03;;;;;;;7.18;4.50;;;;;;;12.58;100.00;96860.28;5339847;26;20012;-60
2024/04/15 09:14:30;;;;;;;8.07;4.22;;;;;;;12.66;100.00;96863.47;5329068;26;20015;-60
2024/04/15 09:17:00;;;;;;;8.02;4.28;;;;;;;12.77;100.00;96856.91;5337665;26;20083;-61
2024/04/15 09:19:29;;;;;;;6.40;3.65;;;;;;;12.82;100.00;96862.31;5337218;26;20028;-61
2024/04/15 09:22:00;;;;;;;6.35;3.85;;;;;;;12.93;100.00;96854.13;5329500;26;20009;-61
2024/04/15 09:24:27;;;;;;;7.53;3.67;;;;;;;13.17;100.00;96850.72;5334599;26;20497;-60
2024/04/15 09:26:54;;;;;;;7.25;3.63;;;;;;;12.88;100.00;96844.91;5326868;26;20075;-61
2024/04/15 09:29:20;;;;;;;7.30;3.92;;;;;;;12.51;100.00;96831.75;5330345;26;20333;-61
2024/04/15 09:31:48;;;;;;;7.15;3.53;;;;;;;12.51;100.00;96829.88;5336804;26;20048;-60
2024/04/15 09:34:15;;;;;;;7.55;3.17;;;;;;;12.81;100.00;96838.97;5333131;26;20005;-60
2024/04/15 09:36:56;;;;;;;5.70;2.58;;;;;;;12.55;100.00;96833.66;5331304;26;20004;-60
2024/04/15 09:39:23;;;;;;;7.15;3.30;;;;;;;12.57;100.00;96833.38;5335871;26;20005;-60
2024/04/15 09:41:53;;;;;;;5.95;2.90;;;;;;;12.27;100.00;96840.56;5330353;26;20017;-60
2024/04/15 09:44:20;;;;;;;5.80;2.65;;;;;;;12.36;100.00;96833.47;5329792;26;20005;-60
2024/04/15 09:46:48;;;;;;;7.78;3.30;;;;;;;12.17;100.00;96835.97;5331476;26;20009;-60
2024/04/15 09:49:17;;;;;;;6.40;3.10;;;;;;;12.18;100.00;96830.25;5323495;26;20020;-60
2024/04/15 09:51:46;;;;;;;6.53;2.50;;;;;;;12.57;100.00;96820.59;5328249;26;20001;-60
2024/04/15 09:54:16;;;;;;;9.50;2.97;;;;;;;12.68;100.00;96818.66;5336247;26;20016;-60
2024/04/15 09:56:47;;;;;;;5.43;3.08;;;;;;;12.80;100.00;96804.75;5333626;26;20472;-60
2024/04/15 09:59:15;;;;;;;6.45;3.05;;;;;;;12.87;100.00;96805.22;5347194;26;20008;-60
2024/04/15 10:01:43;;;;;;;12.55;3.30;;;;;;;13.40;100.00;96798.34;5343800;26;20032;-59
2024/04/15 10:04:21;;;;;;;6.97;2.83;;;;;;;13.92;100.00;96775.31;5335577;26;20009;-60
2024/04/15 10:06:53;;;;;;;6.47;2.92;;;;;;;13.87;100.00;96778.94;5335151;26;20013;-60
2024/04/15 10:09:20;;;;;;;6.45;2.55;;;;;;;13.88;100.00;96774.28;5337672;26;19997;-60
2024/04/15 10:11:49;;;;;;;5.40;2.30;;;;;;;13.82;100.00;96775.44;5334291;26;20009;-60
2024/04/15 10:14:18;;;;;;;6.50;2.55;;;;;;;14.10;100.00;96784.66;5342594;26;20058;-60
2024/04/15 10:16:49;;;;;;;5.78;2.60;;;;;;;14.42;100.00;96775.00;5334352;26;20705;-61
2024/04/15 10:19:28;;;;;;;6.88;2.80;;;;;;;14.48;100.00;96759.41;5335662;26;20000;-61
2024/04/15 10:21:55;;;;;;;5.90;2.03;;;;;;;14.55;100.00;96762.59;5343953;26;20090;-61
2024/04/15 10:24:22;;;;;;;3.75;1.63;;;;;;;14.74;100.00;96761.00;5335783;26;20005;-61
2024/04/15 10:26:49;;;;;;;5.45;1.98;;;;;;;14.08;100.00;96758.84;5331674;26;20049;-60
2024/04/15 10:29:17;;;;;;;3.92;2.03;;;;;;;14.05;100.00;96741.16;5331784;26;20001;-61
2024/04/15 10:31:51;;;;;;;6.13;2.20;;;;;;;14.17;100.00;96748.91;5336470;26;20012;-61
2024/04/15 10:34:26;;;;;;;6.53;1.75;;;;;;;14.56;100.00;96755.25;5326101;26;20017;-61
2024/04/15 10:36:54;;;;;;;7.03;2.38;;;;;;;14.50;100.00;96756.41;5333608;26;20071;-61
2024/04/15 10:39:22;;;;;;;4.68;1.92;;;;;;;14.60;100.00;96744.56;5336221;26;20001;-60
2024/04/15 10:41:50;;;;;;;7.95;1.70;;;;;;;14.27;100.00;96748.78;5332421;26;20052;-60
2024/04/15 10:44:17;;;;;;;3.88;1.42;;;;;;;14.28;100.00;96736.81;5332092;26;20005;-60
2024/04/15 10:46:45;;;;;;;3.20;1.50;;;;;;;14.42;100.00;96747.78;5326805;26;20009;-60
2024/04/15 10:49:13;;;;;;;7.30;1.65;;;;;;;14.65;100.00;96741.75;5335175;26;20001;-61
2024/04/15 10:51:40;;;;;;;3.58;1.50;;;;;;;14.68;100.00;96733.00;5333582;26;20013;-61
2024/04/15 10:54:07;;;;;;;3.40;1.10;;;;;;;14.62;100.00;96740.44;5335682;26;20022;-60
2024/04/15 10:56:34;;;;;;;5.20;1.40;;;;;;;14.31;100.00;96722.59;5341738;26;20023;-61
2024/04/15 10:59:01;;;;;;;6.05;1.70;;;;;;;14.36;100.00;96721.72;5336720;26;20569;-60
2024/04/15 11:01:28;;;;;;;4.25;1.50;;;;;;;14.58;100.00;96706.72;5334768;26;20013;-61
2024/04/15 11:03:55;;;;;;;4.72;1.30;;;;;;;14.86;100.00;96709.63;5339513;26;20009;-60
2024/04/15 11:06:23;;;;;;;3.22;1.30;;;;;;;14.85;100.00;96690.84;5336660;26;20005;-63
2024/04/15 11:08:49;;;;;;;5.35;1.73;;;;;;;15.16;100.00;96684.88;5337223;26;20009;-60
2024/04/15 11:11:16;;;;;;;6.32;1.98;;;;;;;15.50;100.00;96677.44;5329167;26;20017;-60
2024/04/15 11:13:43;;;;;;;3.55;1.42;;;;;;;15.90;100.00;96672.31;5342951;26;20009;-61
2024/04/15 11:16:15;;;;;;;3.90;1.30;;;;;;;16.25;100.00;96652.78;5339187;26;20005;-61
2024/04/15 11:18:42;;;;;;;4.75;1.20;;;;;;;16.24;100.00;96643.78;5335294;26;20009;-60
2024/04/15 11:21:09;;;;;;;5.13;1.42;;;;;;;16.34;100.00;96642.75;5335775;26;20019;-61
2024/04/15 11:23:36;;;;;;;7.10;1.58;;;;;;;16.47;100.00;96643.03;5338931;26;20005;-61
2024/04/15 11:26:05;;;;;;;4.13;1.50;;;;;;;16.29;100.00;96637.38;5342512;26;20001;-61